createdAt,value
2023-05-25T00:01:37.495Z,98314.00
2023-05-25T00:04:04.763Z,98315.00
2023-05-25T00:06:33.144Z,98321.00
2023-05-25T00:08:59.986Z,98293.00
2023-05-25T00:11:27.155Z,98304.00
2023-05-25T00:13:54.502Z,98311.00
2023-05-25T00:16:21.636Z,98308.00
2023-05-25T00:18:48.739Z,98300.00
2023-05-25T00:21:16.317Z,98321.00
2023-05-25T00:23:43.555Z,98313.00
2023-05-25T00:26:10.477Z,98297.00
2023-05-25T00:28:37.357Z,98317.00
2023-05-25T00:31:04.221Z,98323.00
2023-05-25T00:33:31.244Z,98304.00
2023-05-25T00:35:58.537Z,98314.00
2023-05-25T00:38:25.576Z,98310.00
2023-05-25T00:40:59.249Z,98319.00
2023-05-25T00:43:26.156Z,98309.00
2023-05-25T00:45:53.857Z,98315.00
2023-05-25T00:48:20.919Z,98319.00
2023-05-25T00:50:48.076Z,98311.00
2023-05-25T00:53:15.263Z,98300.00
2023-05-25T00:55:53.285Z,98314.00
2023-05-25T00:58:26.883Z,98321.00
2023-05-25T01:00:58.310Z,98313.00
2023-05-25T01:03:29.894Z,98314.00
2023-05-25T01:05:58.695Z,98307.00
2023-05-25T01:08:27.525Z,98311.00
2023-05-25T01:10:57.093Z,98313.00
2023-05-25T01:13:24.497Z,98302.00
2023-05-25T01:15:52.577Z,98307.00
2023-05-25T01:18:19.416Z,98303.00
2023-05-25T01:21:13.282Z,98302.00
2023-05-25T01:28:17.094Z,98307.00
2023-05-25T01:30:48.288Z,98302.00
2023-05-25T01:33:21.125Z,98299.00
2023-05-25T01:35:48.861Z,98300.00
2023-05-25T01:38:17.686Z,98309.00
2023-05-25T01:40:44.814Z,98313.00
2023-05-25T01:43:11.923Z,98309.00
2023-05-25T01:45:39.199Z,98309.00
2023-05-25T01:48:39.499Z,98312.00
2023-05-25T01:51:21.454Z,98314.00
2023-05-25T01:54:19.052Z,98307.00
2023-05-25T01:56:49.878Z,98305.00
2023-05-25T01:59:23.030Z,98310.00
2023-05-25T02:01:53.766Z,98304.00
2023-05-25T02:04:22.712Z,98305.00
2023-05-25T02:06:52.061Z,98305.00
2023-05-25T02:09:20.501Z,98315.00
2023-05-25T02:11:47.654Z,98306.00
2023-05-25T02:14:15.996Z,98295.00
2023-05-25T02:16:45.942Z,98310.00
2023-05-25T02:19:14.884Z,98306.00
2023-05-25T02:21:42.514Z,98321.00
2023-05-25T02:24:10.187Z,98309.00
2023-05-25T02:26:38.958Z,98317.00
2023-05-25T02:29:06.702Z,98317.00
2023-05-25T02:31:33.934Z,98316.00
2023-05-25T02:34:01.811Z,98312.00
2023-05-25T02:36:28.803Z,98314.00
2023-05-25T02:38:55.658Z,98309.00
2023-05-25T02:41:24.249Z,98319.00
2023-05-25T02:43:51.365Z,98320.00
2023-05-25T02:46:18.543Z,98324.00
2023-05-25T02:48:46.517Z,98311.00
2023-05-25T02:51:13.817Z,98321.00
2023-05-25T02:53:41.380Z,98311.00
2023-05-25T02:56:10.248Z,98309.00
2023-05-25T02:58:38.486Z,98318.00
2023-05-25T03:01:11.051Z,98328.00
2023-05-25T03:03:42.708Z,98326.00
2023-05-25T03:06:09.576Z,98319.00
2023-05-25T03:08:36.526Z,98309.00
2023-05-25T03:11:03.467Z,98316.00
2023-05-25T03:13:30.764Z,98327.00
2023-05-25T03:15:57.939Z,98326.00
2023-05-25T03:18:24.991Z,98319.00
2023-05-25T03:20:51.999Z,98328.00
2023-05-25T03:23:18.850Z,98326.00
2023-05-25T03:25:45.943Z,98329.00
2023-05-25T03:28:13.548Z,98344.00
2023-05-25T03:30:41.673Z,98331.00
2023-05-25T03:33:09.591Z,98332.00
2023-05-25T03:35:42.734Z,98333.00
2023-05-25T03:38:09.742Z,98352.00
2023-05-25T03:40:36.634Z,98340.00
2023-05-25T03:43:03.628Z,98347.00
2023-05-25T03:45:30.607Z,98343.00
2023-05-25T03:47:57.760Z,98349.00
2023-05-25T03:50:24.630Z,98343.00
2023-05-25T03:52:51.570Z,98339.00
2023-05-25T03:55:18.522Z,98345.00
2023-05-25T03:57:45.657Z,98335.00
2023-05-25T04:00:13.613Z,98339.00
2023-05-25T04:02:40.571Z,98356.00
2023-05-25T04:05:08.108Z,98355.00
2023-05-25T04:07:37.013Z,98355.00
2023-05-25T04:10:04.961Z,98353.00
2023-05-25T04:12:32.524Z,98344.00
2023-05-25T04:15:00.142Z,98345.00
2023-05-25T04:17:28.284Z,98361.00
2023-05-25T04:19:56.328Z,98358.00
2023-05-25T04:22:23.263Z,98366.00
2023-05-25T04:24:50.237Z,98369.00
2023-05-25T04:27:17.366Z,98377.00
2023-05-25T04:29:44.224Z,98364.00
2023-05-25T04:32:32.676Z,98362.00
2023-05-25T04:35:16.946Z,98364.00
2023-05-25T04:37:47.053Z,98356.00
2023-05-25T04:40:14.503Z,98372.00
2023-05-25T04:42:42.447Z,98373.00
2023-05-25T04:45:10.522Z,98377.00
2023-05-25T04:47:40.831Z,98367.00
2023-05-25T04:50:10.690Z,98378.00
2023-05-25T04:52:37.556Z,98366.00
2023-05-25T04:55:04.818Z,98381.00
2023-05-25T04:57:34.784Z,98381.00
2023-05-25T05:00:02.106Z,98396.00
2023-05-25T05:02:29.506Z,98383.00
2023-05-25T05:04:57.644Z,98387.00
2023-05-25T05:07:24.589Z,98387.00
2023-05-25T05:09:51.478Z,98407.00
2023-05-25T05:12:18.448Z,98411.00
2023-05-25T05:14:49.069Z,98402.00
2023-05-25T05:17:17.558Z,98406.00
2023-05-25T05:19:45.720Z,98410.00
2023-05-25T05:22:15.406Z,98415.00
2023-05-25T05:24:43.136Z,98413.00
2023-05-25T05:27:15.950Z,98414.00
2023-05-25T05:29:46.217Z,98420.00
2023-05-25T05:32:13.395Z,98420.00
2023-05-25T05:34:40.444Z,98413.00
2023-05-25T05:37:16.659Z,98414.00
2023-05-25T05:39:43.808Z,98409.00
2023-05-25T05:42:11.161Z,98417.00
2023-05-25T05:44:38.154Z,98433.00
2023-05-25T05:47:05.693Z,98421.00
2023-05-25T05:49:34.280Z,98425.00
2023-05-25T05:52:02.698Z,98422.00
2023-05-25T05:54:29.633Z,98414.00
2023-05-25T05:57:00.171Z,98412.00
2023-05-25T05:59:27.489Z,98409.00
2023-05-25T06:01:54.749Z,98412.00
2023-05-25T06:04:25.214Z,98417.00
2023-05-25T06:06:52.295Z,98417.00
2023-05-25T06:09:19.244Z,98421.00
2023-05-25T06:11:47.369Z,98426.00
2023-05-25T06:14:14.572Z,98420.00
2023-05-25T06:16:43.630Z,98420.00
2023-05-25T06:19:11.315Z,98414.00
2023-05-25T06:21:38.159Z,98446.00
2023-05-25T06:24:05.736Z,98444.00
2023-05-25T06:26:32.855Z,98433.00
2023-05-25T06:29:00.062Z,98434.00
2023-05-25T06:31:27.196Z,98430.00
2023-05-25T06:33:54.844Z,98433.00
2023-05-25T06:36:21.953Z,98438.00
2023-05-25T06:38:49.323Z,98441.00
2023-05-25T06:41:16.448Z,98429.00
2023-05-25T06:43:43.632Z,98448.00
2023-05-25T06:46:18.724Z,98459.00
2023-05-25T06:48:46.379Z,98438.00
2023-05-25T06:51:13.813Z,98448.00
2023-05-25T06:53:40.691Z,98468.00
2023-05-25T06:56:07.570Z,98455.00
2023-05-25T06:58:34.429Z,98456.00
2023-05-25T07:01:01.611Z,98468.00
2023-05-25T07:03:28.763Z,98459.00
2023-05-25T07:05:55.776Z,98453.00
2023-05-25T07:08:22.880Z,98443.00
2023-05-25T07:10:50.447Z,98442.00
2023-05-25T07:13:17.500Z,98440.00
2023-05-25T07:15:44.823Z,98455.00
2023-05-25T07:18:12.924Z,98455.00
2023-05-25T07:20:44.480Z,98458.00
2023-05-25T07:23:11.869Z,98452.00
2023-05-25T07:25:39.890Z,98451.00
2023-05-25T07:28:07.554Z,98444.00
2023-05-25T07:30:34.679Z,98456.00
2023-05-25T07:33:02.129Z,98453.00
2023-05-25T07:35:29.180Z,98447.00
2023-05-25T07:38:01.628Z,98460.00
2023-05-25T07:40:29.113Z,98453.00
2023-05-25T07:42:56.370Z,98448.00
2023-05-25T07:45:23.311Z,98456.00
2023-05-25T07:47:50.454Z,98454.00
2023-05-25T07:50:17.772Z,98444.00
2023-05-25T07:52:45.609Z,98467.00
2023-05-25T07:55:12.499Z,98455.00
2023-05-25T07:57:39.631Z,98462.00
2023-05-25T08:00:10.913Z,98459.00
2023-05-25T08:02:40.989Z,98469.00
2023-05-25T08:05:08.565Z,98465.00
2023-05-25T08:07:35.801Z,98457.00
2023-05-25T08:10:04.624Z,98457.00
2023-05-25T08:12:46.985Z,98467.00
2023-05-25T08:15:15.944Z,98460.00
2023-05-25T08:17:42.939Z,98456.00
2023-05-25T08:20:10.594Z,98470.00
2023-05-25T08:22:37.864Z,98468.00
2023-05-25T08:25:06.697Z,98473.00
2023-05-25T08:27:35.808Z,98478.00
2023-05-25T08:30:07.149Z,98464.00
2023-05-25T08:32:34.345Z,98473.00
2023-05-25T08:35:01.956Z,98456.00
2023-05-25T08:37:29.327Z,98471.00
2023-05-25T08:39:56.377Z,98468.00
2023-05-25T08:42:24.115Z,98475.00
2023-05-25T08:44:51.296Z,98463.00
2023-05-25T08:47:22.566Z,98458.00
2023-05-25T08:49:50.848Z,98467.00
2023-05-25T08:52:24.091Z,98461.00
2023-05-25T08:54:55.439Z,98464.00
2023-05-25T08:57:40.286Z,98462.00
2023-05-25T09:00:12.837Z,98464.00
2023-05-25T09:02:43.083Z,98472.00
2023-05-25T09:05:10.382Z,98467.00
2023-05-25T09:07:37.408Z,98464.00
2023-05-25T09:10:05.339Z,98471.00
2023-05-25T09:12:32.500Z,98469.00
2023-05-25T09:14:59.790Z,98465.00
2023-05-25T09:17:27.147Z,98467.00
2023-05-25T09:19:54.941Z,98476.00
2023-05-25T09:22:22.626Z,98472.00
2023-05-25T09:24:50.254Z,98465.00
2023-05-25T09:27:20.205Z,98477.00
2023-05-25T09:29:49.392Z,98481.00
2023-05-25T09:32:18.827Z,98477.00
2023-05-25T09:34:47.184Z,98475.00
2023-05-25T09:37:19.000Z,98468.00
2023-05-25T09:39:47.702Z,98467.00
2023-05-25T09:42:15.078Z,98460.00
2023-05-25T09:44:43.122Z,98478.00
2023-05-25T09:47:10.647Z,98478.00
2023-05-25T09:49:38.501Z,98457.00
2023-05-25T09:52:06.593Z,98477.00
2023-05-25T09:54:33.701Z,98476.00
2023-05-25T09:57:04.410Z,98480.00
2023-05-25T09:59:32.084Z,98480.00
2023-05-25T10:01:59.785Z,98471.00
2023-05-25T10:04:26.721Z,98478.00
2023-05-25T10:06:54.212Z,98471.00
2023-05-25T10:09:21.842Z,98461.00
2023-05-25T10:11:52.766Z,98477.00
2023-05-25T10:14:29.287Z,98480.00
2023-05-25T10:16:59.834Z,98487.00
2023-05-25T10:19:49.339Z,98489.00
2023-05-25T10:22:26.393Z,98478.00
2023-05-25T10:25:28.983Z,98476.00
2023-05-25T10:28:28.542Z,98473.00
2023-05-25T10:30:59.910Z,98477.00
2023-05-25T10:36:02.995Z,98479.00
2023-05-25T10:38:40.190Z,98489.00
2023-05-25T10:41:09.818Z,98481.00
2023-05-25T10:43:41.160Z,98485.00
2023-05-25T10:46:08.927Z,98488.00
2023-05-25T10:48:38.440Z,98480.00
2023-05-25T10:51:08.215Z,98497.00
2023-05-25T10:53:36.368Z,98478.00
2023-05-25T10:56:06.602Z,98489.00
2023-05-25T10:58:34.328Z,98487.00
2023-05-25T11:01:09.285Z,98487.00
2023-05-25T11:03:49.076Z,98490.00
2023-05-25T11:06:46.303Z,98493.00
2023-05-25T11:09:33.676Z,98488.00
2023-05-25T11:12:03.483Z,98483.00
2023-05-25T11:14:32.765Z,98477.00
2023-05-25T11:17:15.557Z,98495.00
2023-05-25T11:19:51.183Z,98490.00
2023-05-25T11:22:30.429Z,98487.00
2023-05-25T11:25:00.662Z,98494.00
2023-05-25T11:27:30.442Z,98489.00
2023-05-25T11:29:59.339Z,98495.00
2023-05-25T11:32:28.412Z,98486.00
2023-05-25T11:34:58.099Z,98482.00
2023-05-25T11:37:31.061Z,98482.00
2023-05-25T11:39:57.958Z,98487.00
2023-05-25T11:42:26.152Z,98483.00
2023-05-25T11:44:53.554Z,98497.00
2023-05-25T11:47:25.731Z,98487.00
2023-05-25T11:49:56.242Z,98484.00
2023-05-25T11:52:23.735Z,98479.00
2023-05-25T11:54:50.935Z,98495.00
2023-05-25T11:57:24.376Z,98480.00
2023-05-25T11:59:57.190Z,98481.00
2023-05-25T12:02:24.701Z,98492.00
2023-05-25T12:04:59.655Z,98495.00
2023-05-25T12:07:28.877Z,98485.00
2023-05-25T12:10:12.566Z,98481.00
2023-05-25T12:12:48.702Z,98494.00
2023-05-25T12:15:23.861Z,98486.00
2023-05-25T12:17:53.489Z,98491.00
2023-05-25T12:20:23.684Z,98484.00
2023-05-25T12:22:50.921Z,98485.00
2023-05-25T12:25:22.413Z,98485.00
2023-05-25T12:27:49.699Z,98488.00
2023-05-25T12:30:16.799Z,98470.00
2023-05-25T12:33:04.243Z,98470.00
2023-05-25T12:35:46.628Z,98483.00
2023-05-25T12:38:21.803Z,98491.00
2023-05-25T12:41:07.002Z,98485.00
2023-05-25T12:43:43.033Z,98483.00
2023-05-25T12:46:10.056Z,98473.00
2023-05-25T12:48:37.127Z,98489.00
2023-05-25T12:51:04.389Z,98485.00
2023-05-25T12:53:31.398Z,98490.00
2023-05-25T12:56:05.604Z,98487.00
2023-05-25T12:58:32.693Z,98485.00
2023-05-25T13:00:59.654Z,98475.00
2023-05-25T13:03:26.597Z,98485.00
2023-05-25T13:06:03.173Z,98496.00
2023-05-25T13:08:30.351Z,98494.00
2023-05-25T13:10:57.413Z,98493.00
2023-05-25T13:13:24.544Z,98493.00
2023-05-25T13:15:51.347Z,98486.00
2023-05-25T13:18:18.559Z,98491.00
2023-05-25T13:20:49.796Z,98485.00
2023-05-25T13:23:18.302Z,98477.00
2023-05-25T13:25:46.311Z,98463.00
2023-05-25T13:28:13.154Z,98477.00
2023-05-25T13:30:40.012Z,98474.00
2023-05-25T13:33:07.134Z,98454.00
2023-05-25T13:35:41.372Z,98457.00
2023-05-25T13:38:09.770Z,98464.00
2023-05-25T13:40:36.679Z,98458.00
2023-05-25T13:43:03.781Z,98463.00
2023-05-25T13:45:30.649Z,98457.00
2023-05-25T13:47:57.619Z,98463.00
2023-05-25T13:50:24.607Z,98475.00
2023-05-25T13:52:51.615Z,98464.00
2023-05-25T13:55:18.532Z,98455.00
2023-05-25T13:57:45.490Z,98448.00
2023-05-25T14:00:14.207Z,98453.00
2023-05-25T14:02:41.499Z,98447.00
2023-05-25T14:05:08.868Z,98451.00
2023-05-25T14:07:35.784Z,98453.00
2023-05-25T14:10:02.820Z,98455.00
2023-05-25T14:12:29.891Z,98450.00
2023-05-25T14:14:56.693Z,98446.00
2023-05-25T14:17:24.684Z,98454.00
2023-05-25T14:19:51.692Z,98443.00
2023-05-25T14:22:19.385Z,98429.00
2023-05-25T14:24:46.246Z,98438.00
2023-05-25T14:27:13.354Z,98432.00
2023-05-25T14:29:40.234Z,98444.00
2023-05-25T14:32:07.111Z,98436.00
2023-05-25T14:34:33.961Z,98438.00
2023-05-25T14:37:00.826Z,98436.00
2023-05-25T14:39:27.666Z,98435.00
2023-05-25T14:41:54.519Z,98434.00
2023-05-25T14:44:21.392Z,98439.00
2023-05-25T14:46:48.250Z,98438.00
2023-05-25T14:49:16.740Z,98427.00
2023-05-25T14:51:43.889Z,98435.00
2023-05-25T14:54:13.476Z,98446.00
2023-05-25T14:56:40.619Z,98436.00
2023-05-25T14:59:07.845Z,98439.00
2023-05-25T15:01:36.329Z,98444.00
2023-05-25T15:04:03.748Z,98435.00
2023-05-25T15:06:31.986Z,98446.00
2023-05-25T15:08:59.078Z,98440.00
2023-05-25T15:11:27.064Z,98432.00
2023-05-25T15:13:54.117Z,98432.00
2023-05-25T15:16:21.132Z,98426.00
2023-05-25T15:18:48.285Z,98419.00
2023-05-25T15:21:15.137Z,98429.00
2023-05-25T15:23:42.077Z,98427.00
2023-05-25T15:26:11.457Z,98423.00
2023-05-25T15:28:38.393Z,98425.00
2023-05-25T15:31:05.509Z,98412.00
2023-05-25T15:33:49.534Z,98430.00
2023-05-25T15:36:18.965Z,98425.00
2023-05-25T15:38:48.922Z,98422.00
2023-05-25T15:41:17.150Z,98407.00
2023-05-25T15:43:58.411Z,98416.00
2023-05-25T15:46:25.787Z,98421.00
2023-05-25T15:48:53.401Z,98426.00
2023-05-25T15:51:20.970Z,98423.00
2023-05-25T15:53:48.297Z,98415.00
2023-05-25T15:56:15.170Z,98428.00
2023-05-25T15:58:42.438Z,98423.00
2023-05-25T16:01:10.746Z,98422.00
2023-05-25T16:03:39.388Z,98411.00
2023-05-25T16:06:06.534Z,98413.00
2023-05-25T16:08:33.466Z,98415.00
2023-05-25T16:11:00.390Z,98422.00
2023-05-25T16:13:27.246Z,98413.00
2023-05-25T16:15:54.169Z,98425.00
2023-05-25T16:18:21.308Z,98417.00
2023-05-25T16:20:55.505Z,98440.00
2023-05-25T16:23:23.708Z,98423.00
2023-05-25T16:25:50.905Z,98419.00
2023-05-25T16:28:17.832Z,98417.00
2023-05-25T16:30:44.870Z,98428.00
2023-05-25T16:33:11.928Z,98421.00
2023-05-25T16:35:38.908Z,98422.00
2023-05-25T16:38:05.753Z,98428.00
2023-05-25T16:40:33.374Z,98436.00
2023-05-25T16:43:00.414Z,98428.00
2023-05-25T16:45:27.308Z,98424.00
2023-05-25T16:47:54.777Z,98421.00
2023-05-25T16:50:22.522Z,98421.00
2023-05-25T16:52:49.614Z,98432.00
2023-05-25T16:55:16.642Z,98415.00
2023-05-25T16:57:43.497Z,98420.00
2023-05-25T17:00:11.685Z,98429.00
2023-05-25T17:02:38.653Z,98429.00
2023-05-25T17:05:06.840Z,98435.00
2023-05-25T17:07:34.872Z,98439.00
2023-05-25T17:10:02.537Z,98420.00
2023-05-25T17:12:29.667Z,98429.00
2023-05-25T17:14:56.554Z,98439.00
2023-05-25T17:17:24.249Z,98427.00
2023-05-25T17:19:52.727Z,98434.00
2023-05-25T17:22:19.579Z,98432.00
2023-05-25T17:24:46.813Z,98437.00
2023-05-25T17:27:13.761Z,98426.00
2023-05-25T17:29:41.657Z,98433.00
2023-05-25T17:32:08.650Z,98436.00
2023-05-25T17:34:35.661Z,98429.00
2023-05-25T17:37:02.493Z,98431.00
2023-05-25T17:39:29.361Z,98443.00
2023-05-25T17:41:56.325Z,98445.00
2023-05-25T17:44:23.269Z,98444.00
2023-05-25T17:46:50.149Z,98441.00
2023-05-25T17:49:16.966Z,98449.00
2023-05-25T17:51:44.092Z,98453.00
2023-05-25T17:54:15.550Z,98452.00
2023-05-25T17:56:42.456Z,98453.00
2023-05-25T17:59:09.883Z,98454.00
2023-05-25T18:01:38.376Z,98461.00
2023-05-25T18:04:05.474Z,98454.00
2023-05-25T18:06:32.493Z,98454.00
2023-05-25T18:08:59.632Z,98462.00
2023-05-25T18:11:28.250Z,98455.00
2023-05-25T18:13:55.192Z,98462.00
2023-05-25T18:16:22.161Z,98450.00
2023-05-25T18:18:49.047Z,98447.00
2023-05-25T18:21:15.903Z,98455.00
2023-05-25T18:23:43.009Z,98456.00
2023-05-25T18:26:09.867Z,98458.00
2023-05-25T18:28:36.657Z,98460.00
2023-05-25T18:31:03.524Z,98471.00
2023-05-25T18:33:30.437Z,98453.00
2023-05-25T18:35:58.245Z,98473.00
2023-05-25T18:38:25.348Z,98464.00
2023-05-25T18:40:52.242Z,98470.00
2023-05-25T18:43:19.076Z,98467.00
2023-05-25T18:45:46.095Z,98469.00
2023-05-25T18:48:13.173Z,98483.00
2023-05-25T18:50:41.980Z,98475.00
2023-05-25T18:53:10.608Z,98467.00
2023-05-25T18:55:37.795Z,98477.00
2023-05-25T18:58:04.750Z,98473.00
2023-05-25T19:00:31.593Z,98467.00
2023-05-25T19:02:58.610Z,98472.00
2023-05-25T19:05:25.698Z,98480.00
2023-05-25T19:07:58.895Z,98479.00
2023-05-25T19:10:27.366Z,98485.00
2023-05-25T19:12:54.440Z,98475.00
2023-05-25T19:15:21.576Z,98478.00
2023-05-25T19:17:48.479Z,98482.00
2023-05-25T19:20:15.849Z,98473.00
2023-05-25T19:22:42.737Z,98476.00
2023-05-25T19:25:09.713Z,98491.00
2023-05-25T19:27:36.602Z,98485.00
2023-05-25T19:30:03.937Z,98486.00
2023-05-25T19:32:31.157Z,98495.00
2023-05-25T19:34:58.125Z,98491.00
2023-05-25T19:37:26.206Z,98492.00
2023-05-25T19:39:53.184Z,98480.00
2023-05-25T19:42:20.073Z,98506.00
2023-05-25T19:44:46.971Z,98495.00
2023-05-25T19:47:13.992Z,98506.00
2023-05-25T19:49:41.151Z,98493.00
2023-05-25T19:52:08.049Z,98498.00
2023-05-25T19:54:35.019Z,98507.00
2023-05-25T19:57:02.851Z,98506.00
2023-05-25T19:59:31.133Z,98497.00
2023-05-25T20:01:58.563Z,98493.00
2023-05-25T20:04:25.748Z,98494.00
2023-05-25T20:06:53.798Z,98504.00
2023-05-25T20:09:29.621Z,98516.00
2023-05-25T20:12:00.178Z,98510.00
2023-05-25T20:14:27.359Z,98508.00
2023-05-25T20:16:56.873Z,98499.00
2023-05-25T20:19:23.712Z,98516.00
2023-05-25T20:21:51.163Z,98496.00
2023-05-25T20:24:18.220Z,98499.00
2023-05-25T20:26:45.197Z,98507.00
2023-05-25T20:29:12.192Z,98512.00
2023-05-25T20:31:39.117Z,98507.00
2023-05-25T20:34:06.315Z,98510.00
2023-05-25T20:36:33.215Z,98504.00
2023-05-25T20:39:00.309Z,98505.00
2023-05-25T20:41:32.282Z,98516.00
2023-05-25T20:43:59.254Z,98510.00
2023-05-25T20:46:26.769Z,98519.00
2023-05-25T20:48:53.742Z,98523.00
2023-05-25T20:51:21.667Z,98516.00
2023-05-25T20:53:48.522Z,98519.00
2023-05-25T20:56:15.421Z,98512.00
2023-05-25T20:58:42.356Z,98518.00
2023-05-25T21:01:09.366Z,98508.00
2023-05-25T21:03:36.575Z,98514.00
2023-05-25T21:06:03.899Z,98515.00
2023-05-25T21:08:31.910Z,98511.00
2023-05-25T21:10:59.057Z,98514.00
2023-05-25T21:13:26.104Z,98510.00
2023-05-25T21:15:52.995Z,98526.00
2023-05-25T21:18:20.144Z,98512.00
2023-05-25T21:20:47.065Z,98509.00
2023-05-25T21:23:13.927Z,98506.00
2023-05-25T21:25:43.891Z,98510.00
2023-05-25T21:28:11.052Z,98511.00
2023-05-25T21:30:37.888Z,98521.00
2023-05-25T21:33:04.764Z,98521.00
2023-05-25T21:35:31.664Z,98512.00
2023-05-25T21:37:58.774Z,98525.00
2023-05-25T21:40:25.912Z,98511.00
2023-05-25T21:42:53.323Z,98523.00
2023-05-25T21:45:20.914Z,98520.00
2023-05-25T21:47:47.994Z,98515.00
2023-05-25T21:50:15.058Z,98527.00
2023-05-25T21:52:42.085Z,98528.00
2023-05-25T21:55:09.347Z,98511.00
2023-05-25T21:57:36.251Z,98525.00
2023-05-25T22:00:05.110Z,98513.00
2023-05-25T22:02:39.671Z,98519.00
2023-05-25T22:05:07.066Z,98520.00
2023-05-25T22:07:33.957Z,98522.00
2023-05-25T22:10:00.824Z,98523.00
2023-05-25T22:12:27.674Z,98514.00
2023-05-25T22:14:54.539Z,98529.00
2023-05-25T22:17:21.474Z,98524.00
2023-05-25T22:19:58.931Z,98529.00
2023-05-25T22:22:33.987Z,98523.00
2023-05-25T22:25:01.448Z,98524.00
2023-05-25T22:27:28.566Z,98527.00
2023-05-25T22:29:55.820Z,98530.00
2023-05-25T22:32:23.484Z,98536.00
2023-05-25T22:34:50.462Z,98526.00
2023-05-25T22:37:17.606Z,98527.00
2023-05-25T22:39:44.714Z,98543.00
2023-05-25T22:42:11.628Z,98531.00
2023-05-25T22:44:38.691Z,98544.00
2023-05-25T22:47:06.864Z,98536.00
2023-05-25T22:49:41.277Z,98529.00
2023-05-25T22:52:12.071Z,98524.00
2023-05-25T22:54:39.735Z,98554.00
2023-05-25T22:57:09.087Z,98553.00
2023-05-25T22:59:36.655Z,98543.00
2023-05-25T23:02:04.037Z,98547.00
2023-05-25T23:04:31.365Z,98534.00
2023-05-25T23:06:58.221Z,98536.00
2023-05-25T23:09:25.111Z,98538.00
2023-05-25T23:11:51.963Z,98534.00
2023-05-25T23:14:18.885Z,98547.00
2023-05-25T23:16:48.496Z,98546.00
2023-05-25T23:19:16.962Z,98552.00
2023-05-25T23:21:44.164Z,98544.00
2023-05-25T23:24:11.037Z,98552.00
2023-05-25T23:26:37.865Z,98555.00
2023-05-25T23:29:04.909Z,98548.00
2023-05-25T23:31:32.187Z,98548.00
2023-05-25T23:33:59.073Z,98546.00
2023-05-25T23:36:26.099Z,98547.00
2023-05-25T23:38:53.112Z,98546.00
2023-05-25T23:41:20.241Z,98549.00
2023-05-25T23:43:47.303Z,98531.00
2023-05-25T23:46:17.360Z,98548.00
2023-05-25T23:48:46.096Z,98531.00
2023-05-25T23:51:13.019Z,98526.00
2023-05-25T23:53:39.909Z,98551.00
2023-05-25T23:56:07.054Z,98544.00
2023-05-25T23:58:33.958Z,98538.00
